createdAt,value
2017-10-11T00:01:11.636Z,72.70
2017-10-11T00:03:37.920Z,72.60
2017-10-11T00:06:04.118Z,72.60
2017-10-11T00:08:30.346Z,72.50
2017-10-11T00:10:56.554Z,72.60
2017-10-11T00:13:22.719Z,72.50
2017-10-11T00:15:48.959Z,72.50
2017-10-11T00:18:15.226Z,72.60
2017-10-11T00:20:41.444Z,72.40
2017-10-11T00:23:07.675Z,72.80
2017-10-11T00:25:33.887Z,72.50
2017-10-11T00:28:00.151Z,72.50
2017-10-11T00:30:26.427Z,72.40
2017-10-11T00:32:52.654Z,72.40
2017-10-11T00:35:18.843Z,72.60
2017-10-11T00:37:45.136Z,72.40
2017-10-11T00:40:12.027Z,72.40
2017-10-11T00:42:38.367Z,72.40
2017-10-11T00:45:04.545Z,72.40
2017-10-11T00:47:30.740Z,72.70
2017-10-11T00:49:56.886Z,72.50
2017-10-11T00:52:23.057Z,72.70
2017-10-11T00:54:49.215Z,73.60
2017-10-11T00:57:15.401Z,72.90
2017-10-11T00:59:41.670Z,73.00
2017-10-11T01:02:07.919Z,73.10
2017-10-11T01:04:34.082Z,73.00
2017-10-11T01:07:00.282Z,72.90
2017-10-11T01:09:27.494Z,72.80
2017-10-11T01:11:53.755Z,72.30
2017-10-11T01:14:20.686Z,72.60
2017-10-11T01:16:47.595Z,72.50
2017-10-11T01:19:13.810Z,72.70
2017-10-11T01:21:40.003Z,72.90
2017-10-11T01:24:06.216Z,72.70
2017-10-11T01:26:32.442Z,72.70
2017-10-11T01:28:58.702Z,73.00
2017-10-11T01:31:24.877Z,73.10
2017-10-11T01:33:51.105Z,73.10
2017-10-11T01:36:17.316Z,73.00
2017-10-11T01:38:43.486Z,73.10
2017-10-11T01:41:09.694Z,73.10
2017-10-11T01:43:35.889Z,72.90
2017-10-11T01:46:03.043Z,73.00
2017-10-11T01:48:31.332Z,73.00
2017-10-11T01:50:57.626Z,73.00
2017-10-11T01:53:23.819Z,73.10
2017-10-11T01:55:50.007Z,73.20
2017-10-11T01:58:19.135Z,73.20
2017-10-11T02:00:46.485Z,73.60
2017-10-11T02:03:12.963Z,73.60
2017-10-11T02:05:39.156Z,73.30
2017-10-11T02:08:05.403Z,73.30
2017-10-11T02:10:31.600Z,73.40
2017-10-11T02:12:57.788Z,73.50
2017-10-11T02:15:24.001Z,73.50
2017-10-11T02:17:50.272Z,73.70
2017-10-11T02:20:16.528Z,73.90
2017-10-11T02:22:42.736Z,73.80
2017-10-11T02:25:09.666Z,73.80
2017-10-11T02:27:36.625Z,74.00
2017-10-11T02:30:02.822Z,73.90
2017-10-11T02:32:28.981Z,74.10
2017-10-11T02:34:56.107Z,74.20
2017-10-11T02:37:22.352Z,74.30
2017-10-11T02:39:48.533Z,74.10
2017-10-11T02:42:14.731Z,74.10
2017-10-11T02:44:41.020Z,74.10
2017-10-11T02:47:07.177Z,74.00
2017-10-11T02:49:33.524Z,74.00
2017-10-11T02:51:59.743Z,74.10
2017-10-11T02:57:37.525Z,74.00
2017-10-11T03:00:03.724Z,74.20
2017-10-11T03:02:29.868Z,74.30
2017-10-11T03:04:56.022Z,74.40
2017-10-11T03:07:22.167Z,74.20
2017-10-11T03:09:48.342Z,74.40
2017-10-11T03:12:14.464Z,74.60
2017-10-11T03:14:40.710Z,74.70
2017-10-11T03:17:07.686Z,75.10
2017-10-11T03:19:33.913Z,74.70
2017-10-11T03:22:00.083Z,74.90
2017-10-11T03:24:26.315Z,74.80
2017-10-11T03:26:52.492Z,75.00
2017-10-11T03:29:19.466Z,75.30
2017-10-11T03:31:45.671Z,75.30
2017-10-11T03:34:11.931Z,75.70
2017-10-11T03:36:38.164Z,75.80
2017-10-11T03:39:04.372Z,76.20
2017-10-11T03:41:30.566Z,76.20
2017-10-11T03:43:56.792Z,75.90
2017-10-11T03:46:22.979Z,75.70
2017-10-11T03:48:49.225Z,75.80
2017-10-11T03:51:15.416Z,75.50
2017-10-11T03:53:41.653Z,75.30
2017-10-11T03:56:07.889Z,75.10
2017-10-11T03:58:34.219Z,75.00
2017-10-11T04:01:00.677Z,74.90
2017-10-11T04:03:27.715Z,74.60
2017-10-11T04:05:53.935Z,74.50
2017-10-11T04:08:20.150Z,74.40
2017-10-11T04:10:46.345Z,74.40
2017-10-11T04:13:12.592Z,74.30
2017-10-11T04:15:39.599Z,73.90
2017-10-11T04:18:05.805Z,73.90
2017-10-11T04:20:31.991Z,73.70
2017-10-11T04:22:58.180Z,73.60
2017-10-11T04:25:24.394Z,73.50
2017-10-11T04:27:50.602Z,73.30
2017-10-11T04:30:17.603Z,73.00
2017-10-11T04:32:43.806Z,73.00
2017-10-11T04:35:09.964Z,72.70
2017-10-11T04:37:36.154Z,72.50
2017-10-11T04:40:03.110Z,72.60
2017-10-11T04:42:29.331Z,72.60
2017-10-11T04:44:56.641Z,72.40
2017-10-11T04:47:23.119Z,72.40
2017-10-11T04:49:49.370Z,72.10
2017-10-11T04:52:16.326Z,71.50
2017-10-11T04:54:42.523Z,71.40
2017-10-11T04:57:09.398Z,71.30
2017-10-11T04:59:35.567Z,71.30
2017-10-11T05:02:01.720Z,71.30
2017-10-11T05:04:27.926Z,72.10
2017-10-11T05:06:54.147Z,71.00
2017-10-11T05:09:20.342Z,71.30
2017-10-11T05:11:46.563Z,71.10
2017-10-11T05:14:12.753Z,70.60
2017-10-11T05:16:39.660Z,70.30
2017-10-11T05:19:05.856Z,70.20
2017-10-11T05:21:32.019Z,70.20
2017-10-11T05:23:58.224Z,69.80
2017-10-11T05:26:24.439Z,69.60
2017-10-11T05:28:50.639Z,69.40
2017-10-11T05:31:16.853Z,69.10
2017-10-11T05:33:42.996Z,69.00
2017-10-11T05:36:09.191Z,69.00
2017-10-11T05:38:35.422Z,68.80
2017-10-11T05:41:01.581Z,68.70
2017-10-11T05:43:27.712Z,68.60
2017-10-11T05:45:53.857Z,68.00
2017-10-11T05:48:20.001Z,68.10
2017-10-11T05:50:46.151Z,68.10
2017-10-11T05:53:13.040Z,67.40
2017-10-11T05:55:39.943Z,67.80
2017-10-11T05:58:06.092Z,67.80
2017-10-11T06:00:32.291Z,67.60
2017-10-11T06:02:59.197Z,67.40
2017-10-11T06:05:25.343Z,67.40
2017-10-11T06:07:51.490Z,67.60
2017-10-11T06:10:17.699Z,67.10
2017-10-11T06:12:43.931Z,67.50
2017-10-11T06:15:10.102Z,67.30
2017-10-11T06:17:36.262Z,67.50
2017-10-11T06:20:02.447Z,67.50
2017-10-11T06:22:28.709Z,67.40
2017-10-11T06:24:55.046Z,67.40
2017-10-11T06:27:21.222Z,67.40
2017-10-11T06:29:47.412Z,67.40
2017-10-11T06:32:13.617Z,67.20
2017-10-11T06:34:39.776Z,67.30
2017-10-11T06:37:06.677Z,66.90
2017-10-11T06:39:32.855Z,66.90
2017-10-11T06:41:59.055Z,67.10
2017-10-11T06:44:28.742Z,67.40
2017-10-11T06:46:54.893Z,67.30
2017-10-11T06:49:21.096Z,67.00
2017-10-11T06:51:47.264Z,67.00
2017-10-11T06:54:13.551Z,66.80
2017-10-11T06:56:39.735Z,66.50
2017-10-11T06:59:05.903Z,66.20
2017-10-11T07:01:32.138Z,66.20
2017-10-11T07:03:58.318Z,66.20
2017-10-11T07:06:24.463Z,66.20
2017-10-11T07:08:50.643Z,66.30
2017-10-11T07:11:16.805Z,66.30
2017-10-11T07:13:42.961Z,66.00
2017-10-11T07:16:09.126Z,65.10
2017-10-11T07:18:35.280Z,65.70
2017-10-11T07:21:01.502Z,65.40
2017-10-11T07:23:27.715Z,65.30
2017-10-11T07:25:53.876Z,64.60
2017-10-11T07:28:20.063Z,64.20
2017-10-11T07:30:46.240Z,64.50
2017-10-11T07:33:13.127Z,63.00
2017-10-11T07:35:39.346Z,63.70
2017-10-11T07:38:05.557Z,63.40
2017-10-11T07:40:31.726Z,63.40
2017-10-11T07:42:57.918Z,63.00
2017-10-11T07:45:24.179Z,62.40
2017-10-11T07:47:50.383Z,62.20
2017-10-11T07:50:16.571Z,62.20
2017-10-11T07:52:42.767Z,61.40
2017-10-11T07:55:08.992Z,61.80
2017-10-11T07:57:35.135Z,60.80
2017-10-11T08:00:02.111Z,60.50
2017-10-11T08:02:28.266Z,60.50
2017-10-11T08:04:54.434Z,60.10
2017-10-11T08:07:20.609Z,59.70
2017-10-11T08:09:46.766Z,59.80
2017-10-11T08:12:13.695Z,58.90
2017-10-11T08:14:39.903Z,58.90
2017-10-11T08:17:06.070Z,59.40
2017-10-11T08:19:32.238Z,58.40
2017-10-11T08:21:59.205Z,58.00
2017-10-11T08:24:25.447Z,58.00
2017-10-11T08:26:51.635Z,58.20
2017-10-11T08:29:17.829Z,58.20
2017-10-11T08:31:44.029Z,58.80
2017-10-11T08:34:10.940Z,58.00
2017-10-11T08:36:37.092Z,58.00
2017-10-11T08:39:03.321Z,58.10
2017-10-11T08:41:29.498Z,57.30
2017-10-11T08:43:56.047Z,57.30
2017-10-11T08:46:22.300Z,57.30
2017-10-11T08:48:48.523Z,57.80
2017-10-11T08:51:14.739Z,57.40
2017-10-11T08:53:41.719Z,58.10
2017-10-11T08:56:07.947Z,57.40
2017-10-11T08:58:34.156Z,57.40
2017-10-11T09:01:00.303Z,57.40
2017-10-11T09:03:26.479Z,57.40
2017-10-11T09:05:52.643Z,57.30
2017-10-11T09:08:18.872Z,57.30
2017-10-11T09:10:45.217Z,57.70
2017-10-11T09:13:11.518Z,57.80
2017-10-11T09:15:37.676Z,57.40
2017-10-11T09:18:03.872Z,58.10
2017-10-11T09:20:30.051Z,57.80
2017-10-11T09:22:56.278Z,57.40
2017-10-11T09:25:22.506Z,57.40
2017-10-11T09:27:48.681Z,57.80
2017-10-11T09:30:15.455Z,58.10
2017-10-11T09:32:41.753Z,58.20
2017-10-11T09:35:07.957Z,58.60
2017-10-11T09:37:34.289Z,58.40
2017-10-11T09:40:00.539Z,58.00
2017-10-11T09:42:26.766Z,58.40
2017-10-11T09:44:52.963Z,58.80
2017-10-11T09:47:19.167Z,58.50
2017-10-11T09:49:45.392Z,58.60
2017-10-11T09:52:11.643Z,57.70
2017-10-11T09:54:37.812Z,57.70
2017-10-11T09:57:03.990Z,57.70
2017-10-11T09:59:30.191Z,57.70
2017-10-11T10:01:56.399Z,57.90
2017-10-11T10:04:22.559Z,57.70
2017-10-11T10:06:48.848Z,57.70
2017-10-11T10:09:15.033Z,57.80
2017-10-11T10:11:41.927Z,58.20
2017-10-11T10:14:08.186Z,58.10
2017-10-11T10:16:34.382Z,57.80
2017-10-11T10:19:00.611Z,57.80
2017-10-11T10:21:26.779Z,57.80
2017-10-11T10:23:53.735Z,58.00
2017-10-11T10:26:19.905Z,57.80
2017-10-11T10:28:46.120Z,57.90
2017-10-11T10:31:12.262Z,58.00
2017-10-11T10:33:38.451Z,58.10
2017-10-11T10:36:04.620Z,58.10
2017-10-11T10:38:30.841Z,57.80
2017-10-11T10:40:57.080Z,58.00
2017-10-11T10:43:23.309Z,58.00
2017-10-11T10:45:49.533Z,57.90
2017-10-11T10:48:15.684Z,57.90
2017-10-11T10:50:41.889Z,57.90
2017-10-11T10:53:08.159Z,58.00
2017-10-11T10:55:34.307Z,57.90
2017-10-11T10:58:00.468Z,58.00
2017-10-11T11:00:26.621Z,57.90
2017-10-11T11:02:52.743Z,58.00
2017-10-11T11:05:19.667Z,56.90
2017-10-11T11:07:46.597Z,56.50
2017-10-11T11:10:12.759Z,56.50
2017-10-11T11:12:38.925Z,55.70
2017-10-11T11:15:05.118Z,54.90
2017-10-11T11:17:31.267Z,53.30
2017-10-11T11:19:57.414Z,52.30
2017-10-11T11:22:23.563Z,52.80
2017-10-11T11:24:49.775Z,52.30
2017-10-11T11:27:15.962Z,51.40
2017-10-11T11:29:42.143Z,51.60
2017-10-11T11:32:08.322Z,51.40
2017-10-11T11:34:34.550Z,51.30
2017-10-11T11:37:01.425Z,50.80
2017-10-11T11:39:27.818Z,50.80
2017-10-11T11:41:54.009Z,50.30
2017-10-11T11:44:20.179Z,50.80
2017-10-11T11:46:46.330Z,50.10
2017-10-11T11:49:13.223Z,49.40
2017-10-11T11:51:39.371Z,49.40
2017-10-11T11:54:06.296Z,49.60
2017-10-11T11:56:32.482Z,49.60
2017-10-11T11:58:58.655Z,49.00
2017-10-11T12:01:24.837Z,49.10
2017-10-11T12:03:51.116Z,50.00
2017-10-11T12:06:17.300Z,48.90
2017-10-11T12:08:44.217Z,49.20
2017-10-11T12:11:10.356Z,48.40
2017-10-11T12:13:36.529Z,48.50
2017-10-11T12:16:02.690Z,49.30
2017-10-11T12:18:28.923Z,48.40
2017-10-11T12:20:55.161Z,48.50
2017-10-11T12:23:21.371Z,48.50
2017-10-11T12:25:47.571Z,48.60
2017-10-11T12:28:14.489Z,47.50
2017-10-11T12:30:40.718Z,47.50
2017-10-11T12:33:06.854Z,48.70
2017-10-11T12:35:33.023Z,47.90
2017-10-11T12:37:59.143Z,47.20
2017-10-11T12:40:25.353Z,48.60
2017-10-11T12:42:52.257Z,47.70
2017-10-11T12:45:18.419Z,47.60
2017-10-11T12:47:44.568Z,47.20
2017-10-11T12:50:10.699Z,47.80
2017-10-11T12:52:36.924Z,48.10
2017-10-11T12:55:03.078Z,47.80
2017-10-11T12:57:29.267Z,47.40
2017-10-11T12:59:56.248Z,47.90
2017-10-11T13:02:22.425Z,47.90
2017-10-11T13:04:48.635Z,48.10
2017-10-11T13:07:14.777Z,48.40
2017-10-11T13:09:41.707Z,47.50
2017-10-11T13:12:07.849Z,47.40
2017-10-11T13:14:33.999Z,48.10
2017-10-11T13:17:00.197Z,48.00
2017-10-11T13:19:26.402Z,48.00
2017-10-11T13:21:52.605Z,47.80
2017-10-11T13:24:18.775Z,48.20
2017-10-11T13:26:44.954Z,48.00
2017-10-11T13:29:11.216Z,48.40
2017-10-11T13:31:37.444Z,48.80
2017-10-11T13:34:03.640Z,48.80
2017-10-11T13:36:29.867Z,48.60
2017-10-11T13:38:56.002Z,48.60
2017-10-11T13:41:22.150Z,48.30
2017-10-11T13:43:48.324Z,48.70
2017-10-11T13:46:14.723Z,48.40
2017-10-11T13:48:41.936Z,48.10
2017-10-11T13:51:09.114Z,48.30
2017-10-11T13:53:35.273Z,48.30
2017-10-11T13:56:01.433Z,48.20
2017-10-11T13:58:27.613Z,48.80
2017-10-11T14:00:53.807Z,48.70
2017-10-11T14:03:20.715Z,48.30
2017-10-11T14:05:46.857Z,48.30
2017-10-11T14:08:13.789Z,48.70
2017-10-11T14:10:40.740Z,48.40
2017-10-11T14:13:06.945Z,48.30
2017-10-11T14:15:33.090Z,48.70
2017-10-11T14:17:59.238Z,48.70
2017-10-11T14:20:25.390Z,48.70
2017-10-11T14:22:51.592Z,48.60
2017-10-11T14:25:19.240Z,48.60
2017-10-11T14:27:45.899Z,48.60
2017-10-11T14:30:12.142Z,48.60
2017-10-11T14:32:38.471Z,48.60
2017-10-11T14:35:04.727Z,48.60
2017-10-11T14:37:30.981Z,48.60
2017-10-11T14:39:57.269Z,49.80
2017-10-11T14:42:23.620Z,48.60
2017-10-11T14:44:49.766Z,48.50
2017-10-11T14:47:15.926Z,48.50
2017-10-11T14:49:42.119Z,48.50
2017-10-11T14:52:08.452Z,49.10
2017-10-11T14:54:34.629Z,49.30
2017-10-11T14:57:00.875Z,49.40
2017-10-11T14:59:27.032Z,50.00
2017-10-11T15:01:53.942Z,50.00
2017-10-11T15:04:20.090Z,50.00
2017-10-11T15:06:46.226Z,50.30
2017-10-11T15:09:12.437Z,50.40
2017-10-11T15:11:38.564Z,50.50
2017-10-11T15:14:04.772Z,50.60
2017-10-11T15:16:30.919Z,50.40
2017-10-11T15:18:57.166Z,50.70
2017-10-11T15:21:23.303Z,50.60
2017-10-11T15:23:49.522Z,50.80
2017-10-11T15:26:15.715Z,50.90
2017-10-11T15:28:41.871Z,51.00
2017-10-11T15:31:08.127Z,51.00
2017-10-11T15:33:34.296Z,51.40
2017-10-11T15:36:00.474Z,51.30
2017-10-11T15:38:26.602Z,51.40
2017-10-11T15:40:52.880Z,51.20
2017-10-11T15:43:19.120Z,51.20
2017-10-11T15:45:45.299Z,51.70
2017-10-11T15:48:11.446Z,51.60
2017-10-11T15:50:37.605Z,52.10
2017-10-11T15:53:04.488Z,51.40
2017-10-11T15:55:30.693Z,51.40
2017-10-11T15:57:56.843Z,51.50
2017-10-11T16:00:22.986Z,52.00
2017-10-11T16:02:49.152Z,51.70
2017-10-11T16:05:15.318Z,52.30
2017-10-11T16:07:42.528Z,52.20
2017-10-11T16:10:09.394Z,52.00
2017-10-11T16:12:35.614Z,51.90
2017-10-11T16:15:01.846Z,51.80
2017-10-11T16:17:28.182Z,52.10
2017-10-11T16:19:54.538Z,52.10
2017-10-11T16:22:20.748Z,52.00
2017-10-11T16:24:46.968Z,52.10
2017-10-11T16:27:13.152Z,52.30
2017-10-11T16:29:39.388Z,52.20
2017-10-11T16:32:05.519Z,52.40
2017-10-11T16:34:31.726Z,52.70
2017-10-11T16:36:57.865Z,52.10
2017-10-11T16:39:24.085Z,52.30
2017-10-11T16:41:54.884Z,52.30
2017-10-11T16:44:27.855Z,52.00
2017-10-11T16:46:54.039Z,52.20
2017-10-11T16:49:20.716Z,51.50
2017-10-11T16:51:46.883Z,52.00
2017-10-11T16:54:14.409Z,52.40
2017-10-11T16:56:40.907Z,52.50
2017-10-11T16:59:08.120Z,52.20
2017-10-11T17:01:34.353Z,52.10
2017-10-11T17:04:00.715Z,52.20
2017-10-11T17:06:26.927Z,52.90
2017-10-11T17:08:53.157Z,52.70
2017-10-11T17:11:19.459Z,52.90
2017-10-11T17:13:45.628Z,52.50
2017-10-11T17:16:11.807Z,53.10
2017-10-11T17:18:38.042Z,53.90
2017-10-11T17:21:04.794Z,53.30
2017-10-11T17:23:32.056Z,52.50
2017-10-11T17:25:58.485Z,52.30
2017-10-11T17:28:24.669Z,52.50
2017-10-11T17:30:51.688Z,51.80
2017-10-11T17:33:17.993Z,51.80
2017-10-11T17:35:44.240Z,52.10
2017-10-11T17:38:10.512Z,52.50
2017-10-11T17:40:36.720Z,52.50
2017-10-11T17:43:02.997Z,52.10
2017-10-11T17:45:29.232Z,52.10
2017-10-11T17:47:55.396Z,52.50
2017-10-11T17:50:21.654Z,52.20
2017-10-11T17:52:47.982Z,52.10
2017-10-11T17:55:14.205Z,52.30
2017-10-11T17:57:40.417Z,53.00
2017-10-11T18:00:06.663Z,52.80
2017-10-11T18:02:33.238Z,53.10
2017-10-11T18:04:59.471Z,53.10
2017-10-11T18:07:25.934Z,53.10
2017-10-11T18:09:52.106Z,52.80
2017-10-11T18:12:18.511Z,53.20
2017-10-11T18:14:44.868Z,52.70
2017-10-11T18:17:11.069Z,53.10
2017-10-11T18:19:38.175Z,53.20
2017-10-11T18:22:04.403Z,53.20
2017-10-11T18:24:30.867Z,53.50
2017-10-11T18:26:57.326Z,53.80
2017-10-11T18:29:23.576Z,53.00
2017-10-11T18:31:50.929Z,53.40
2017-10-11T18:34:17.175Z,53.40
2017-10-11T18:36:43.461Z,53.20
2017-10-11T18:39:09.826Z,53.50
2017-10-11T18:41:36.025Z,53.90
2017-10-11T18:44:02.312Z,53.50
2017-10-11T18:46:28.561Z,53.70
2017-10-11T18:48:54.770Z,54.50
2017-10-11T18:51:20.958Z,53.40
2017-10-11T18:53:47.255Z,53.90
2017-10-11T18:56:13.512Z,53.50
2017-10-11T18:58:39.706Z,54.00
2017-10-11T19:01:06.492Z,53.90
2017-10-11T19:03:37.231Z,54.30
2017-10-11T19:06:03.467Z,54.20
2017-10-11T19:08:29.688Z,53.70
2017-10-11T19:10:55.868Z,53.40
2017-10-11T19:13:22.136Z,53.80
2017-10-11T19:15:48.348Z,54.00
2017-10-11T19:18:14.482Z,54.40
2017-10-11T19:20:40.718Z,54.70
2017-10-11T19:23:06.871Z,54.20
2017-10-11T19:25:33.760Z,54.10
2017-10-11T19:27:59.934Z,54.10
2017-10-11T19:30:26.237Z,54.20
2017-10-11T19:32:52.426Z,54.50
2017-10-11T19:35:18.643Z,54.80
2017-10-11T19:37:45.695Z,54.90
2017-10-11T19:40:11.938Z,54.90
2017-10-11T19:42:38.247Z,55.20
2017-10-11T19:45:04.504Z,56.10
2017-10-11T19:47:30.698Z,55.70
2017-10-11T19:49:56.862Z,55.80
2017-10-11T19:52:23.072Z,55.70
2017-10-11T19:54:49.362Z,55.40
2017-10-11T19:57:15.659Z,57.00
2017-10-11T19:59:41.944Z,58.20
2017-10-11T20:02:08.255Z,58.50
2017-10-11T20:04:34.503Z,58.20
2017-10-11T20:07:00.777Z,58.30
2017-10-11T20:09:27.108Z,58.90
2017-10-11T20:11:53.416Z,59.20
2017-10-11T20:14:19.643Z,59.60
2017-10-11T20:16:45.947Z,59.60
2017-10-11T20:19:12.168Z,59.90
2017-10-11T20:21:39.083Z,59.80
2017-10-11T20:24:05.296Z,59.80
2017-10-11T20:26:31.538Z,59.90
2017-10-11T20:28:57.827Z,59.90
2017-10-11T20:31:24.006Z,60.60
2017-10-11T20:33:51.536Z,60.40
2017-10-11T20:36:17.712Z,60.40
2017-10-11T20:38:43.950Z,61.00
2017-10-11T20:41:10.118Z,61.10
2017-10-11T20:43:36.274Z,61.00
2017-10-11T20:46:02.489Z,61.70
2017-10-11T20:48:28.675Z,62.10
2017-10-11T20:50:54.908Z,62.80
2017-10-11T20:53:21.120Z,62.50
2017-10-11T20:55:47.283Z,62.30
2017-10-11T20:58:13.513Z,62.40
2017-10-11T21:00:39.752Z,62.50
2017-10-11T21:03:05.928Z,62.60
2017-10-11T21:05:32.089Z,63.00
2017-10-11T21:07:58.266Z,63.10
2017-10-11T21:10:24.399Z,62.50
2017-10-11T21:12:50.596Z,62.40
2017-10-11T21:15:16.848Z,62.40
2017-10-11T21:17:43.160Z,63.00
2017-10-11T21:20:09.282Z,63.10
2017-10-11T21:22:35.501Z,63.10
2017-10-11T21:25:04.497Z,62.80
2017-10-11T21:27:31.420Z,62.90
2017-10-11T21:29:57.601Z,62.80
2017-10-11T21:32:27.578Z,62.40
2017-10-11T21:34:53.779Z,62.10
2017-10-11T21:37:20.044Z,62.00
2017-10-11T21:39:46.226Z,62.10
2017-10-11T21:42:12.612Z,62.90
2017-10-11T21:44:39.538Z,62.70
2017-10-11T21:47:06.456Z,62.10
2017-10-11T21:49:35.984Z,62.10
2017-10-11T21:52:02.227Z,62.00
2017-10-11T21:54:31.614Z,61.70
2017-10-11T21:56:57.827Z,62.00
2017-10-11T21:59:24.061Z,61.80
2017-10-11T22:01:50.205Z,62.10
2017-10-11T22:04:17.147Z,62.30
2017-10-11T22:06:43.283Z,62.20
2017-10-11T22:09:09.454Z,62.60
2017-10-11T22:11:35.632Z,62.70
2017-10-11T22:14:01.885Z,62.10
2017-10-11T22:16:28.106Z,61.80
2017-10-11T22:18:54.304Z,61.90
2017-10-11T22:21:21.207Z,62.70
2017-10-11T22:23:47.414Z,62.70
2017-10-11T22:26:13.629Z,62.70
2017-10-11T22:28:39.857Z,62.50
2017-10-11T22:31:06.211Z,62.00
2017-10-11T22:33:32.521Z,62.50
2017-10-11T22:35:58.731Z,62.80
2017-10-11T22:38:25.691Z,62.20
2017-10-11T22:40:51.977Z,62.30
2017-10-11T22:43:18.232Z,62.50
2017-10-11T22:45:44.427Z,63.50
2017-10-11T22:48:10.652Z,62.70
2017-10-11T22:50:36.846Z,62.80
2017-10-11T22:53:03.026Z,63.10
2017-10-11T22:55:30.050Z,63.20
2017-10-11T22:57:56.443Z,63.10
2017-10-11T23:00:22.622Z,63.40
2017-10-11T23:02:48.914Z,63.70
2017-10-11T23:05:15.173Z,63.70
2017-10-11T23:07:41.421Z,63.90
2017-10-11T23:10:08.448Z,64.00
2017-10-11T23:12:34.649Z,64.00
2017-10-11T23:15:00.802Z,64.10
2017-10-11T23:17:27.025Z,65.50
2017-10-11T23:19:53.231Z,64.50
2017-10-11T23:22:20.202Z,64.20
2017-10-11T23:24:46.446Z,64.20
2017-10-11T23:27:12.654Z,64.10
2017-10-11T23:29:38.907Z,64.00
2017-10-11T23:32:05.124Z,64.60
2017-10-11T23:34:31.330Z,64.90
2017-10-11T23:36:57.499Z,65.60
2017-10-11T23:39:23.746Z,65.50
2017-10-11T23:41:50.698Z,65.60
2017-10-11T23:44:16.987Z,65.60
2017-10-11T23:46:43.896Z,66.50
2017-10-11T23:49:10.036Z,65.70
2017-10-11T23:51:37.006Z,65.70
2017-10-11T23:54:03.203Z,65.60
2017-10-11T23:56:29.383Z,65.60
2017-10-11T23:58:56.292Z,65.60
